Terminal Aerodrome Forecast
Issued by NWS

Home | Current Version | Previous Version | Graphics & Text | Print | Product List | Glossary On
Versions: 1 2 3 4 5 6 7 8 9 10 11 12 13 14 15 16 17 18 19 20 21
834
FTUS42 KMHX 031144
TAFOAJ
TAF
KOAJ 031144Z 0312/0412 17004KT P6SM BKN010
     FM031300 17014G20KT P6SM SCT025 SCT100
     FM031800 18018G26KT 6SM SHRA BKN045
     FM040100 19014G22KT 4SM SHRA BR VCTS OVC020CB
      AMD LTD TO CLD VIS AND WIND=

USA.gov is the U.S. government's official web portal to all federal, state and local government web resources and services.